Gistel, Belgium
Current Conditions -  °F | °C
As of 1:20 PM on Friday 24 Oct 2014 (Local Time) from EBOS Reporting Station
Light Rain Light Rain  
Wind Chill: 54°   Ceiling: 600
Heat Index: 54°   Visibility: 2.8mi
Dew Point: 50°   Wind: 12mph
Humidity: 88%   Direction: 180°S
Pressure: 30.03"   Gusts: NA
Location:  51.16°N, 2.96°E
Report Text: EBOS 241120Z 18010KT 4500 -RADZ BR BKN006 BKN011 12/10 Q1017 TEMPO 6000 -RA SCT006 BKN011
Loading
Personal Weather Stations






























Interactive Weather Map
Tropical Storm Tracking
New forecast layout! Learn more

10-Day Weather Forecast

Advertisements
Track Severe Weather on mobile